Time;durP1;ratioP1;P1;durP2;ratioP2;P2;SDS_P1;SDS_P2;PMS_P1;PMS_P2;Temp;Humidity;BMP_temperature;BMP_pressure;BME280_temperature;BME280_humidity;BME280_pressure;Samples;Min_cycle;Max_cycle;Signal;HPM_P1;HPM_P2
2022/05/28 00:01:22;;;;;;;24.13;4.20;;;;;;;;;;4995244;28;92598;-72
2022/05/28 00:03:49;;;;;;;13.32;3.78;;;;;;;;;;4995941;28;94001;-72
2022/05/28 00:06:16;;;;;;;14.95;4.15;;;;;;;;;;4996012;28;94453;-72
2022/05/28 00:08:43;;;;;;;16.00;5.93;;;;;;;;;;4994932;28;93076;-72
2022/05/28 00:11:14;;;;;;;14.05;4.03;;;;;;;;;;5010467;28;93833;-72
2022/05/28 00:13:42;;;;;;;12.07;3.55;;;;;;;;;;5004982;28;94031;-71
2022/05/28 00:16:08;;;;;;;13.32;3.60;;;;;;;;;;5015541;28;91782;-72
2022/05/28 00:18:37;;;;;;;18.55;4.30;;;;;;;;;;5017934;28;93677;-72
2022/05/28 00:21:03;;;;;;;19.50;4.82;;;;;;;;;;5014888;28;92946;-72
2022/05/28 00:23:29;;;;;;;12.68;3.45;;;;;;;;;;5013051;28;94871;-71
2022/05/28 00:25:56;;;;;;;15.55;3.78;;;;;;;;;;5015440;28;95380;-71
2022/05/28 00:28:22;;;;;;;14.57;3.83;;;;;;;;;;5023892;28;92454;-72
2022/05/28 00:30:49;;;;;;;9.82;3.65;;;;;;;;;;5035690;28;93956;-72
2022/05/28 00:33:16;;;;;;;10.40;3.30;;;;;;;;;;5035497;28;94346;-71
2022/05/28 00:35:43;;;;;;;16.63;3.83;;;;;;;;;;5034712;28;92560;-73
2022/05/28 00:38:09;;;;;;;13.00;3.63;;;;;;;;;;5034965;28;95234;-73
2022/05/28 00:40:35;;;;;;;16.40;3.85;;;;;;;;;;5029083;27;92849;-72
2022/05/28 00:43:04;;;;;;;14.88;4.10;;;;;;;;;;5014443;28;93561;-72
2022/05/28 00:45:31;;;;;;;22.35;4.15;;;;;;;;;;5015277;28;93807;-71
2022/05/28 00:48:00;;;;;;;13.55;4.45;;;;;;;;;;5013650;28;94950;-71
2022/05/28 00:50:26;;;;;;;16.05;4.28;;;;;;;;;;5014210;28;95754;-72
2022/05/28 00:52:53;;;;;;;20.90;4.88;;;;;;;;;;5015393;28;93529;-72
2022/05/28 00:55:19;;;;;;;19.35;5.20;;;;;;;;;;5015313;28;92453;-72
2022/05/28 00:57:46;;;;;;;17.42;4.22;;;;;;;;;;5014375;28;94030;-71
2022/05/28 01:00:15;;;;;;;17.25;4.07;;;;;;;;;;5014925;28;93291;-71
2022/05/28 01:02:50;;;;;;;17.70;4.57;;;;;;;;;;5018097;28;92435;-72
2022/05/28 01:05:26;;;;;;;18.65;4.18;;;;;;;;;;5015477;28;93423;-72
2022/05/28 01:08:12;;;;;;;11.63;4.15;;;;;;;;;;5013809;28;92862;-71
2022/05/28 01:10:41;;;;;;;11.52;4.20;;;;;;;;;;5013318;28;93195;-71
2022/05/28 01:13:14;;;;;;;12.80;3.55;;;;;;;;;;5012962;28;96525;-71
2022/05/28 01:15:40;;;;;;;;;;;;;;;;;;5015545;28;92890;-72
2022/05/28 01:18:09;;;;;;;16.20;4.82;;;;;;;;;;5014663;28;122875;-72
2022/05/28 01:20:48;;;;;;;14.45;3.58;;;;;;;;;;5014703;28;94577;-71
2022/05/28 01:23:17;;;;;;;11.18;3.17;;;;;;;;;;5014544;28;92433;-71
2022/05/28 01:25:43;;;;;;;15.10;4.15;;;;;;;;;;5016685;28;94179;-72
2022/05/28 01:28:13;;;;;;;20.27;3.78;;;;;;;;;;5014564;28;92521;-72
2022/05/28 01:30:40;;;;;;;24.88;4.07;;;;;;;;;;5014400;28;94378;-72
2022/05/28 01:33:08;;;;;;;13.45;4.30;;;;;;;;;;5013546;28;93587;-71
2022/05/28 01:35:35;;;;;;;19.13;4.30;;;;;;;;;;5014988;28;92505;-72
2022/05/28 01:38:03;;;;;;;13.38;3.28;;;;;;;;;;5011648;28;95392;-72
2022/05/28 01:40:29;;;;;;;22.42;3.53;;;;;;;;;;5013678;28;94110;-72
2022/05/28 01:42:57;;;;;;;21.42;3.35;;;;;;;;;;5014280;28;93314;-72
2022/05/28 01:45:26;;;;;;;21.13;4.72;;;;;;;;;;5013375;28;94254;-72
2022/05/28 01:47:54;;;;;;;16.77;4.18;;;;;;;;;;5017349;28;94237;-72
2022/05/28 01:50:22;;;;;;;13.35;4.03;;;;;;;;;;5013993;28;93887;-71
2022/05/28 01:52:49;;;;;;;23.10;3.83;;;;;;;;;;5018111;28;94112;-72
2022/05/28 01:55:16;;;;;;;15.70;3.75;;;;;;;;;;5032502;27;91782;-71
2022/05/28 01:57:43;;;;;;;28.65;4.38;;;;;;;;;;5014140;28;92617;-71
2022/05/28 02:00:09;;;;;;;17.55;4.28;;;;;;;;;;5013146;28;94141;-72
2022/05/28 02:02:37;;;;;;;16.25;3.40;;;;;;;;;;5011683;28;94886;-71
2022/05/28 02:05:03;;;;;;;19.05;3.67;;;;;;;;;;5013942;28;95779;-72
2022/05/28 02:07:30;;;;;;;17.88;3.80;;;;;;;;;;5013187;28;93598;-71
2022/05/28 02:10:02;;;;;;;14.52;3.35;;;;;;;;;;5017377;28;92600;-71
2022/05/28 02:12:28;;;;;;;17.73;4.18;;;;;;;;;;5011484;28;93912;-71
2022/05/28 02:15:16;;;;;;;17.77;3.72;;;;;;;;;;4995084;28;92751;-71
2022/05/28 02:18:09;;;;;;;19.52;3.75;;;;;;;;;;4993229;28;92476;-71
2022/05/28 02:20:40;;;;;;;6.90;3.15;;;;;;;;;;5009848;28;95126;-71
2022/05/28 02:23:27;;;;;;;13.20;3.63;;;;;;;;;;5013198;28;92517;-72
2022/05/28 02:25:59;;;;;;;13.37;3.37;;;;;;;;;;5013909;28;93982;-71
2022/05/28 02:28:27;;;;;;;17.38;4.07;;;;;;;;;;5029062;28;96495;-72
2022/05/28 02:31:01;;;;;;;13.55;3.08;;;;;;;;;;5036580;27;92477;-72
2022/05/28 02:33:29;;;;;;;20.88;3.53;;;;;;;;;;5033191;27;93263;-72
2022/05/28 02:35:55;;;;;;;21.90;3.45;;;;;;;;;;5032740;27;92942;-72
2022/05/28 02:38:22;;;;;;;19.13;3.50;;;;;;;;;;5033456;28;93984;-72
2022/05/28 02:40:48;;;;;;;18.27;4.35;;;;;;;;;;5033492;28;94128;-72
2022/05/28 02:43:15;;;;;;;11.85;3.33;;;;;;;;;;5013210;28;92465;-71
2022/05/28 02:45:41;;;;;;;16.92;3.10;;;;;;;;;;5013629;28;93899;-72
2022/05/28 02:48:08;;;;;;;16.60;3.72;;;;;;;;;;5012667;28;93623;-72
2022/05/28 02:50:34;;;;;;;18.00;4.95;;;;;;;;;;5012014;28;93251;-72
2022/05/28 02:53:01;;;;;;;18.63;3.45;;;;;;;;;;5014841;28;94920;-72
2022/05/28 02:55:27;;;;;;;11.40;3.00;;;;;;;;;;5012378;28;92550;-72
2022/05/28 02:57:54;;;;;;;19.45;4.05;;;;;;;;;;5013369;28;93946;-72
2022/05/28 03:00:20;;;;;;;17.23;3.63;;;;;;;;;;5013870;28;94337;-72
2022/05/28 03:02:48;;;;;;;15.20;4.30;;;;;;;;;;5012445;28;92891;-72
2022/05/28 03:05:15;;;;;;;17.25;3.33;;;;;;;;;;5013265;28;94230;-72
2022/05/28 03:07:42;;;;;;;13.98;3.75;;;;;;;;;;5012832;28;94148;-72
2022/05/28 03:10:09;;;;;;;15.88;3.58;;;;;;;;;;5013002;28;91736;-71
2022/05/28 03:12:36;;;;;;;15.60;2.80;;;;;;;;;;5013090;28;93442;-72
2022/05/28 03:15:02;;;;;;;12.30;3.00;;;;;;;;;;5016147;28;93599;-71
2022/05/28 03:17:28;;;;;;;12.98;2.67;;;;;;;;;;5011029;28;94874;-71
2022/05/28 03:19:55;;;;;;;9.98;2.45;;;;;;;;;;5012320;28;94434;-72
2022/05/28 03:22:21;;;;;;;6.65;1.98;;;;;;;;;;5013258;28;92625;-72
2022/05/28 03:24:47;;;;;;;10.02;2.95;;;;;;;;;;5011656;28;95375;-71
2022/05/28 03:27:14;;;;;;;20.13;3.40;;;;;;;;;;5012849;28;93412;-72
2022/05/28 03:29:40;;;;;;;8.40;2.60;;;;;;;;;;5012704;28;92696;-72
2022/05/28 03:32:07;;;;;;;12.70;2.63;;;;;;;;;;5015381;28;93065;-72
2022/05/28 03:34:33;;;;;;;8.93;3.08;;;;;;;;;;5017030;28;93493;-73
2022/05/28 03:36:59;;;;;;;11.48;2.47;;;;;;;;;;5019816;28;92558;-72
2022/05/28 03:39:26;;;;;;;9.88;2.08;;;;;;;;;;5014608;28;94255;-72
2022/05/28 03:41:52;;;;;;;11.98;2.47;;;;;;;;;;5014859;28;95141;-72
2022/05/28 03:44:18;;;;;;;9.73;1.90;;;;;;;;;;5016125;28;96494;-72
2022/05/28 03:46:45;;;;;;;11.43;2.30;;;;;;;;;;5015101;28;93432;-72
2022/05/28 03:49:18;;;;;;;10.25;2.50;;;;;;;;;;5016417;28;92423;-72
2022/05/28 03:51:45;;;;;;;4.70;2.00;;;;;;;;;;5015659;28;93435;-72
2022/05/28 03:54:11;;;;;;;7.38;1.50;;;;;;;;;;5016028;28;94355;-71
2022/05/28 03:56:39;;;;;;;7.13;1.77;;;;;;;;;;5015843;28;92570;-71
2022/05/28 03:59:06;;;;;;;7.03;1.88;;;;;;;;;;5019186;28;93934;-71
2022/05/28 04:01:32;;;;;;;8.52;2.70;;;;;;;;;;5015311;28;92521;-71
2022/05/28 04:03:59;;;;;;;10.43;2.20;;;;;;;;;;5015946;28;93954;-71
2022/05/28 04:06:26;;;;;;;7.13;2.13;;;;;;;;;;5012913;28;96154;-71
2022/05/28 04:08:52;;;;;;;9.27;1.63;;;;;;;;;;5016722;28;93285;-71
2022/05/28 04:11:18;;;;;;;8.35;1.52;;;;;;;;;;5015959;28;93935;-71
2022/05/28 04:13:45;;;;;;;3.50;2.17;;;;;;;;;;5009763;28;94445;-71
2022/05/28 04:16:12;;;;;;;12.27;2.17;;;;;;;;;;4996789;28;92589;-71
2022/05/28 04:18:40;;;;;;;4.15;1.40;;;;;;;;;;4998444;28;92750;-71
2022/05/28 04:21:06;;;;;;;6.35;1.85;;;;;;;;;;4995341;28;92436;-72
2022/05/28 04:23:33;;;;;;;7.03;1.45;;;;;;;;;;4995860;28;93128;-72
2022/05/28 04:25:59;;;;;;;3.38;1.33;;;;;;;;;;5003071;28;94374;-71
2022/05/28 04:28:26;;;;;;;8.02;1.92;;;;;;;;;;5014586;28;92885;-71
2022/05/28 04:30:54;;;;;;;5.45;1.50;;;;;;;;;;5013939;28;94843;-71
2022/05/28 04:33:21;;;;;;;12.13;2.03;;;;;;;;;;5015384;28;94121;-71
2022/05/28 04:35:47;;;;;;;10.93;2.20;;;;;;;;;;5014520;28;92478;-71
2022/05/28 04:38:13;;;;;;;10.05;1.95;;;;;;;;;;5015026;28;93489;-72
2022/05/28 04:40:40;;;;;;;4.82;1.42;;;;;;;;;;5017638;28;94159;-72
2022/05/28 04:43:06;;;;;;;7.55;2.00;;;;;;;;;;5015364;28;93724;-70
2022/05/28 04:45:32;;;;;;;3.70;1.50;;;;;;;;;;5014685;28;93118;-72
2022/05/28 04:47:59;;;;;;;2.95;1.45;;;;;;;;;;5014911;28;91777;-72
2022/05/28 04:50:25;;;;;;;6.65;1.65;;;;;;;;;;5015290;28;93200;-72
2022/05/28 04:52:52;;;;;;;4.35;1.45;;;;;;;;;;5015066;28;93111;-72
2022/05/28 04:55:18;;;;;;;7.07;1.60;;;;;;;;;;5013008;28;94977;-72
2022/05/28 04:57:44;;;;;;;9.32;1.73;;;;;;;;;;5014728;28;96307;-72
2022/05/28 05:00:12;;;;;;;8.93;1.65;;;;;;;;;;5023011;28;94229;-72
2022/05/28 05:02:39;;;;;;;11.43;1.70;;;;;;;;;;5021965;28;92422;-72
2022/05/28 05:05:06;;;;;;;9.48;3.63;;;;;;;;;;5015188;28;94336;-73
2022/05/28 05:07:32;;;;;;;8.00;1.70;;;;;;;;;;5031430;28;92457;-72
2022/05/28 05:09:59;;;;;;;5.90;1.45;;;;;;;;;;4997869;28;93123;-73
2022/05/28 05:12:25;;;;;;;12.00;2.47;;;;;;;;;;5011408;28;92510;-74
2022/05/28 05:14:51;;;;;;;13.07;1.88;;;;;;;;;;5013795;28;93572;-73
2022/05/28 05:17:18;;;;;;;5.65;1.70;;;;;;;;;;5017145;28;94342;-72
2022/05/28 05:19:44;;;;;;;6.78;1.80;;;;;;;;;;5019616;28;95482;-73
2022/05/28 05:22:10;;;;;;;8.02;1.55;;;;;;;;;;5027235;28;93192;-73
2022/05/28 05:24:37;;;;;;;9.80;1.60;;;;;;;;;;5036759;28;94027;-73
2022/05/28 05:27:03;;;;;;;4.45;1.65;;;;;;;;;;5016103;28;92426;-72
2022/05/28 05:29:30;;;;;;;15.35;2.00;;;;;;;;;;5014491;28;93767;-73
2022/05/28 05:31:56;;;;;;;11.90;2.63;;;;;;;;;;5013357;28;93811;-72
2022/05/28 05:34:23;;;;;;;7.47;1.75;;;;;;;;;;5017935;28;92495;-73
2022/05/28 05:36:49;;;;;;;7.60;2.10;;;;;;;;;;5014904;28;94050;-72
2022/05/28 05:39:16;;;;;;;8.73;1.55;;;;;;;;;;5013162;28;93676;-71
2022/05/28 05:41:42;;;;;;;10.80;2.28;;;;;;;;;;5014429;28;93516;-72
2022/05/28 05:44:09;;;;;;;5.78;1.55;;;;;;;;;;5011994;28;95028;-71
2022/05/28 05:46:36;;;;;;;11.18;2.20;;;;;;;;;;5016995;28;93094;-74
2022/05/28 05:49:03;;;;;;;12.77;2.20;;;;;;;;;;5014281;28;93141;-73
2022/05/28 05:51:30;;;;;;;10.15;1.73;;;;;;;;;;5013164;28;94455;-73
2022/05/28 05:53:56;;;;;;;8.02;1.83;;;;;;;;;;5013542;28;92895;-73
2022/05/28 05:56:22;;;;;;;8.30;2.15;;;;;;;;;;5010931;28;93245;-73
2022/05/28 05:58:49;;;;;;;8.98;2.88;;;;;;;;;;5013383;28;93454;-73
2022/05/28 06:01:19;;;;;;;5.10;1.58;;;;;;;;;;5014768;28;91665;-72
2022/05/28 06:03:45;;;;;;;13.05;2.72;;;;;;;;;;5014136;28;93083;-73
2022/05/28 06:06:13;;;;;;;6.68;1.67;;;;;;;;;;4998277;28;94429;-73
2022/05/28 06:08:40;;;;;;;10.48;2.80;;;;;;;;;;4995151;28;94833;-71
2022/05/28 06:11:06;;;;;;;6.40;2.28;;;;;;;;;;4993790;28;94268;-73
2022/05/28 06:13:32;;;;;;;12.57;2.55;;;;;;;;;;4993384;28;92478;-73
2022/05/28 06:15:59;;;;;;;8.55;1.90;;;;;;;;;;4994008;28;94140;-72
2022/05/28 06:18:25;;;;;;;12.45;1.73;;;;;;;;;;4995881;28;94150;-71
2022/05/28 06:20:52;;;;;;;12.45;2.85;;;;;;;;;;4999342;28;94093;-72
2022/05/28 06:23:19;;;;;;;12.75;2.30;;;;;;;;;;5014115;28;92893;-72
2022/05/28 06:25:45;;;;;;;9.32;2.83;;;;;;;;;;4999786;28;93498;-72
2022/05/28 06:28:12;;;;;;;8.60;2.42;;;;;;;;;;5012126;28;92643;-72
2022/05/28 06:30:40;;;;;;;12.63;2.20;;;;;;;;;;5013254;28;94234;-72
2022/05/28 06:33:07;;;;;;;14.13;2.40;;;;;;;;;;5005356;28;95276;-72
2022/05/28 06:35:33;;;;;;;10.40;2.25;;;;;;;;;;4992689;28;96391;-72
2022/05/28 06:38:00;;;;;;;9.80;2.20;;;;;;;;;;4993588;28;95058;-72
2022/05/28 06:40:27;;;;;;;9.15;1.83;;;;;;;;;;4992943;28;92647;-72
2022/05/28 06:42:55;;;;;;;9.73;2.22;;;;;;;;;;4993966;28;93925;-72
2022/05/28 06:45:22;;;;;;;6.35;1.77;;;;;;;;;;4993547;28;94374;-72
2022/05/28 06:47:48;;;;;;;9.18;2.53;;;;;;;;;;4993080;28;92434;-72
2022/05/28 06:53:00;;;;;;;8.13;2.25;;;;;;;;;;4993801;28;92816;-72
2022/05/28 06:55:27;;;;;;;9.82;2.22;;;;;;;;;;4993086;28;93237;-71
2022/05/28 06:57:53;;;;;;;7.82;2.38;;;;;;;;;;5011384;28;95886;-71
2022/05/28 07:00:19;;;;;;;7.60;2.28;;;;;;;;;;5012853;28;92492;-71
2022/05/28 07:02:46;;;;;;;6.32;2.05;;;;;;;;;;5012251;28;93947;-70
2022/05/28 07:05:14;;;;;;;9.73;1.98;;;;;;;;;;5015136;28;94048;-71
2022/05/28 07:07:41;;;;;;;9.23;1.75;;;;;;;;;;5016575;28;92460;-71
2022/05/28 07:10:08;;;;;;;6.53;2.42;;;;;;;;;;5005406;28;93272;-71
2022/05/28 07:12:34;;;;;;;9.23;2.20;;;;;;;;;;4999577;28;94659;-71
2022/05/28 07:15:00;;;;;;;8.85;2.20;;;;;;;;;;5012890;28;93467;-71
2022/05/28 07:17:27;;;;;;;10.95;2.55;;;;;;;;;;5015781;28;93557;-71
2022/05/28 07:19:53;;;;;;;12.57;2.85;;;;;;;;;;5016786;28;92450;-71
2022/05/28 07:22:19;;;;;;;8.45;2.38;;;;;;;;;;5015304;28;94808;-71
2022/05/28 07:24:46;;;;;;;11.32;2.60;;;;;;;;;;5015508;28;94375;-71
2022/05/28 07:27:12;;;;;;;6.70;1.80;;;;;;;;;;5016568;28;92512;-71
2022/05/28 07:29:39;;;;;;;7.03;1.88;;;;;;;;;;5015485;28;93152;-71
2022/05/28 07:32:07;;;;;;;10.05;2.20;;;;;;;;;;5016503;28;94002;-71
2022/05/28 07:34:34;;;;;;;12.38;2.97;;;;;;;;;;5019236;28;92496;-71
2022/05/28 07:37:00;;;;;;;5.72;1.83;;;;;;;;;;5015563;28;93372;-71
2022/05/28 07:39:26;;;;;;;7.95;2.47;;;;;;;;;;5016430;28;91705;-72
2022/05/28 07:41:53;;;;;;;8.43;2.25;;;;;;;;;;5016538;28;93156;-72
2022/05/28 07:44:19;;;;;;;10.40;3.70;;;;;;;;;;5015379;28;94501;-72
2022/05/28 07:46:45;;;;;;;9.68;3.22;;;;;;;;;;5014710;28;95455;-71
2022/05/28 07:49:12;;;;;;;11.52;2.22;;;;;;;;;;5016351;28;95509;-71
2022/05/28 07:51:38;;;;;;;9.40;2.75;;;;;;;;;;5015077;28;93369;-71
2022/05/28 07:54:05;;;;;;;6.68;2.47;;;;;;;;;;5016300;28;92549;-70
2022/05/28 07:56:32;;;;;;;9.38;1.98;;;;;;;;;;5019104;28;93767;-70
2022/05/28 07:58:59;;;;;;;6.57;1.90;;;;;;;;;;5015228;28;92423;-71
2022/05/28 08:01:30;;;;;;;9.77;2.58;;;;;;;;;;5015880;28;92873;-71
2022/05/28 08:04:02;;;;;;;6.75;2.13;;;;;;;;;;5016437;28;92521;-71
2022/05/28 08:06:31;;;;;;;6.22;2.25;;;;;;;;;;5014463;28;92861;-71
2022/05/28 08:08:58;;;;;;;4.90;1.80;;;;;;;;;;5015974;28;93870;-71
2022/05/28 08:11:24;;;;;;;9.90;2.38;;;;;;;;;;5013320;28;94891;-71
2022/05/28 08:13:51;;;;;;;9.02;2.40;;;;;;;;;;5014899;28;92408;-71
2022/05/28 08:16:18;;;;;;;7.97;2.47;;;;;;;;;;5003445;28;93889;-71
2022/05/28 08:18:45;;;;;;;7.75;2.80;;;;;;;;;;5017039;28;94164;-71
2022/05/28 08:23:57;;;;;;;14.80;3.17;;;;;;;;;;5015112;28;92527;-71
2022/05/28 08:26:24;;;;;;;9.13;2.63;;;;;;;;;;5014811;28;92652;-71
2022/05/28 08:28:51;;;;;;;14.45;3.22;;;;;;;;;;5016332;28;94237;-71
2022/05/28 08:31:18;;;;;;;10.25;2.58;;;;;;;;;;5015416;28;94148;-71
2022/05/28 08:33:45;;;;;;;15.80;2.50;;;;;;;;;;5014929;28;92429;-71
2022/05/28 08:36:11;;;;;;;12.55;2.58;;;;;;;;;;5014103;28;94839;-71
2022/05/28 08:38:39;;;;;;;7.38;2.42;;;;;;;;;;5017396;28;93920;-71
2022/05/28 08:41:13;;;;;;;16.70;3.20;;;;;;;;;;5014605;28;93053;-71
2022/05/28 08:43:52;;;;;;;11.43;2.75;;;;;;;;;;5014928;28;94212;-71
2022/05/28 08:46:18;;;;;;;9.55;2.78;;;;;;;;;;5015394;28;92453;-71
2022/05/28 08:48:49;;;;;;;14.43;3.00;;;;;;;;;;5014044;28;92485;-71
2022/05/28 08:51:23;;;;;;;15.02;2.15;;;;;;;;;;5014979;28;94242;-71
2022/05/28 08:53:55;;;;;;;8.55;2.63;;;;;;;;;;5015911;28;91784;-71
2022/05/28 08:56:23;;;;;;;12.35;2.65;;;;;;;;;;5015417;28;93330;-71
2022/05/28 08:59:01;;;;;;;11.82;2.25;;;;;;;;;;5015070;28;94260;-71
2022/05/28 09:01:28;;;;;;;13.50;3.03;;;;;;;;;;5015486;28;94841;-71
2022/05/28 09:03:57;;;;;;;10.63;3.00;;;;;;;;;;5015081;28;94186;-71
2022/05/28 09:06:36;;;;;;;8.70;2.55;;;;;;;;;;5014670;28;92438;-70
2022/05/28 09:09:04;;;;;;;17.80;3.15;;;;;;;;;;5014309;28;92434;-71
2022/05/28 09:11:33;;;;;;;12.85;2.75;;;;;;;;;;5014035;28;94165;-70
2022/05/28 09:14:02;;;;;;;13.55;3.20;;;;;;;;;;5013753;28;92450;-72
2022/05/28 09:16:30;;;;;;;16.42;3.00;;;;;;;;;;4993665;28;94136;-72
2022/05/28 09:18:59;;;;;;;15.35;3.55;;;;;;;;;;4995204;28;92571;-72
2022/05/28 09:21:26;;;;;;;8.90;2.08;;;;;;;;;;4994515;28;92472;-71
2022/05/28 09:23:55;;;;;;;8.10;2.78;;;;;;;;;;4997297;28;93610;-71
2022/05/28 09:26:31;;;;;;;10.20;2.28;;;;;;;;;;4993279;28;95505;-72
2022/05/28 09:29:04;;;;;;;9.85;2.10;;;;;;;;;;4993745;28;96780;-72
2022/05/28 09:31:40;;;;;;;6.38;2.63;;;;;;;;;;4994418;28;94035;-72
2022/05/28 09:34:12;;;;;;;7.05;1.95;;;;;;;;;;4994617;28;93296;-75
2022/05/28 09:36:49;;;;;;;11.50;2.63;;;;;;;;;;4993058;28;93589;-72
2022/05/28 09:39:33;;;;;;;12.95;2.70;;;;;;;;;;4994301;28;94106;-72
2022/05/28 09:42:20;;;;;;;6.93;2.22;;;;;;;;;;4994704;28;92423;-72
2022/05/28 09:45:05;;;;;;;8.75;2.10;;;;;;;;;;4994991;28;94128;-72
2022/05/28 09:47:50;;;;;;;6.60;2.42;;;;;;;;;;4997136;28;93581;-72
2022/05/28 09:50:37;;;;;;;11.35;2.42;;;;;;;;;;4993802;28;92479;-72
2022/05/28 09:55:51;;;;;;;9.32;3.17;;;;;;;;;;4994370;28;92456;-72
2022/05/28 09:58:19;;;;;;;16.40;2.65;;;;;;;;;;4993896;28;93950;-72
2022/05/28 10:00:48;;;;;;;10.50;2.78;;;;;;;;;;4993934;28;94246;-71
2022/05/28 10:06:10;;;;;;;7.25;2.25;;;;;;;;;;4993131;28;94311;-71
2022/05/28 10:08:37;;;;;;;7.28;2.22;;;;;;;;;;4993904;28;94183;-71
2022/05/28 10:11:05;;;;;;;9.85;1.92;;;;;;;;;;4997752;28;91738;-71
2022/05/28 10:13:41;;;;;;;11.13;2.20;;;;;;;;;;4992943;28;94443;-72
2022/05/28 10:16:08;;;;;;;9.27;1.98;;;;;;;;;;5007654;28;92663;-71
2022/05/28 10:18:57;;;;;;;13.88;2.30;;;;;;;;;;4989815;28;94866;-71
2022/05/28 10:21:34;;;;;;;6.15;2.03;;;;;;;;;;4993187;28;93613;-72
2022/05/28 10:24:03;;;;;;;7.53;2.08;;;;;;;;;;4993861;28;92832;-71
2022/05/28 10:26:39;;;;;;;8.70;2.25;;;;;;;;;;4992741;28;94423;-71
2022/05/28 10:29:24;;;;;;;12.55;2.42;;;;;;;;;;4993466;28;93330;-71
2022/05/28 10:31:51;;;;;;;3.95;1.92;;;;;;;;;;4996727;28;92528;-71
2022/05/28 10:34:26;;;;;;;12.45;2.30;;;;;;;;;;5015986;28;93104;-71
2022/05/28 10:36:53;;;;;;;5.88;2.10;;;;;;;;;;5014430;28;91743;-71
2022/05/28 10:39:19;;;;;;;4.45;1.77;;;;;;;;;;5012521;28;93525;-71
2022/05/28 10:41:48;;;;;;;7.68;2.45;;;;;;;;;;5012533;28;94205;-72
2022/05/28 10:44:16;;;;;;;9.50;3.47;;;;;;;;;;5012001;28;94857;-72
2022/05/28 10:47:00;;;;;;;10.38;2.88;;;;;;;;;;5012471;28;96372;-71
2022/05/28 10:50:02;;;;;;;6.90;2.10;;;;;;;;;;5013071;28;94303;-72
2022/05/28 10:52:40;;;;;;;5.85;1.90;;;;;;;;;;4970926;28;92511;-71
2022/05/28 10:55:11;;;;;;;20.65;2.97;;;;;;;;;;5001488;28;93271;-71
2022/05/28 10:57:47;;;;;;;4.00;2.42;;;;;;;;;;5013466;28;92866;-71
2022/05/28 11:00:32;;;;;;;10.55;2.47;;;;;;;;;;5013159;28;92923;-71
2022/05/28 11:03:21;;;;;;;8.70;2.65;;;;;;;;;;5006669;28;93297;-71
2022/05/28 11:06:05;;;;;;;14.32;2.22;;;;;;;;;;5005321;28;92985;-71
2022/05/28 11:08:39;;;;;;;11.80;2.17;;;;;;;;;;5011060;28;93480;-71
2022/05/28 11:11:08;;;;;;;8.82;2.95;;;;;;;;;;4991683;28;96837;-71
2022/05/28 11:13:53;;;;;;;10.73;2.42;;;;;;;;;;4993024;28;92637;-70
2022/05/28 11:16:31;;;;;;;12.20;2.40;;;;;;;;;;5005483;28;93309;-71
2022/05/28 11:19:01;;;;;;;5.32;1.95;;;;;;;;;;4995821;28;93173;-71
2022/05/28 11:21:53;;;;;;;12.27;2.60;;;;;;;;;;4992929;28;93254;-71
2022/05/28 11:24:38;;;;;;;6.80;1.90;;;;;;;;;;4993076;28;93470;-71
2022/05/28 11:27:12;;;;;;;12.23;2.55;;;;;;;;;;4993247;28;93130;-71
2022/05/28 11:29:46;;;;;;;6.60;1.85;;;;;;;;;;4992826;28;93203;-71
2022/05/28 11:32:15;;;;;;;4.60;1.83;;;;;;;;;;4992924;28;94692;-71
2022/05/28 11:34:47;;;;;;;6.13;1.92;;;;;;;;;;4992964;28;92477;-71
2022/05/28 11:37:19;;;;;;;6.03;1.67;;;;;;;;;;4991064;28;94864;-71
2022/05/28 11:39:55;;;;;;;7.97;1.77;;;;;;;;;;4992172;28;94296;-71
2022/05/28 11:42:42;;;;;;;8.55;2.17;;;;;;;;;;4996189;28;92452;-71
2022/05/28 11:45:13;;;;;;;4.68;2.00;;;;;;;;;;4992877;28;94179;-71
2022/05/28 11:47:54;;;;;;;6.25;1.80;;;;;;;;;;4992078;28;92524;-72
2022/05/28 11:53:39;;;;;;;4.72;1.83;;;;;;;;;;4999997;28;93604;-70
2022/05/28 11:56:08;;;;;;;10.70;2.70;;;;;;;;;;5002412;27;91801;-69
2022/05/28 11:58:39;;;;;;;6.97;1.85;;;;;;;;;;5000529;28;92724;-69
2022/05/28 12:01:09;;;;;;;6.85;2.47;;;;;;;;;;4998043;28;94212;-71
2022/05/28 12:03:37;;;;;;;12.32;2.45;;;;;;;;;;5000599;28;96718;-69
2022/05/28 12:06:03;;;;;;;11.20;2.33;;;;;;;;;;5010184;28;93860;-69
2022/05/28 12:08:47;;;;;;;11.50;3.67;;;;;;;;;;5006731;28;92982;-70
2022/05/28 12:11:19;;;;;;;5.13;2.20;;;;;;;;;;5004821;28;93938;-69
2022/05/28 12:13:51;;;;;;;11.52;2.70;;;;;;;;;;5005455;28;94152;-70
2022/05/28 12:16:17;;;;;;;12.70;2.28;;;;;;;;;;5008542;28;92506;-70
2022/05/28 12:18:59;;;;;;;11.23;2.60;;;;;;;;;;5001278;28;94043;-69
2022/05/28 12:21:27;;;;;;;12.82;1.95;;;;;;;;;;5007453;28;94172;-70
2022/05/28 12:24:23;;;;;;;6.35;2.17;;;;;;;;;;5008649;28;92856;-69
2022/05/28 12:29:54;;;;;;;9.65;2.92;;;;;;;;;;5000575;28;97059;-70
2022/05/28 12:32:25;;;;;;;9.85;2.35;;;;;;;;;;5000659;28;96165;-70
2022/05/28 12:34:51;;;;;;;12.68;2.75;;;;;;;;;;4996825;28;95667;-70
2022/05/28 12:37:20;;;;;;;8.57;2.28;;;;;;;;;;4995291;28;93185;-70
2022/05/28 12:39:56;;;;;;;4.45;1.58;;;;;;;;;;5001480;28;93862;-70
2022/05/28 12:42:27;;;;;;;8.55;2.08;;;;;;;;;;5000198;28;94477;-70
2022/05/28 12:45:13;;;;;;;5.85;2.08;;;;;;;;;;5010389;28;92517;-70
2022/05/28 12:47:40;;;;;;;8.95;1.55;;;;;;;;;;5008500;28;94108;-69
2022/05/28 12:50:06;;;;;;;4.35;2.15;;;;;;;;;;4998091;28;94221;-70
2022/05/28 12:52:41;;;;;;;4.53;1.95;;;;;;;;;;5015344;28;92611;-70
2022/05/28 12:55:18;;;;;;;5.35;1.67;;;;;;;;;;5012387;28;96109;-70
2022/05/28 12:57:56;;;;;;;8.45;2.13;;;;;;;;;;5015044;28;92458;-70
2022/05/28 13:00:22;;;;;;;6.30;2.33;;;;;;;;;;5014287;28;93861;-69
2022/05/28 13:02:50;;;;;;;8.70;2.35;;;;;;;;;;5013664;28;93177;-69
2022/05/28 13:05:24;;;;;;;9.85;1.45;;;;;;;;;;4997148;28;92627;-69
2022/05/28 13:07:59;;;;;;;6.30;2.25;;;;;;;;;;4994525;28;93534;-69
2022/05/28 13:10:27;;;;;;;5.25;1.88;;;;;;;;;;4994770;28;93829;-69
2022/05/28 13:13:12;;;;;;;6.50;1.90;;;;;;;;;;5008942;28;91846;-67
2022/05/28 13:15:53;;;;;;;9.68;2.00;;;;;;;;;;5005813;28;93967;-69
2022/05/28 13:18:31;;;;;;;15.23;1.70;;;;;;;;;;5014990;28;92437;-69
2022/05/28 13:21:00;;;;;;;3.70;1.60;;;;;;;;;;5013324;28;94908;-69
2022/05/28 13:23:35;;;;;;;7.22;1.83;;;;;;;;;;5004524;28;94227;-69
2022/05/28 13:26:24;;;;;;;5.93;2.78;;;;;;;;;;5008289;28;92606;-69
2022/05/28 13:29:11;;;;;;;4.25;1.95;;;;;;;;;;5006037;28;93028;-70
2022/05/28 13:31:39;;;;;;;10.73;2.90;;;;;;;;;;4995399;27;93455;-69
2022/05/28 13:34:16;;;;;;;10.38;2.13;;;;;;;;;;4994607;28;92545;-69
2022/05/28 13:36:42;;;;;;;13.55;2.45;;;;;;;;;;4996648;28;93108;-69
2022/05/28 13:39:09;;;;;;;6.97;2.10;;;;;;;;;;4994663;28;91914;-69
2022/05/28 13:41:42;;;;;;;11.30;2.42;;;;;;;;;;4994420;28;93161;-69
2022/05/28 13:44:12;;;;;;;6.00;2.03;;;;;;;;;;4993712;28;94889;-69
2022/05/28 13:46:44;;;;;;;11.15;2.35;;;;;;;;;;4992559;28;95129;-69
2022/05/28 13:49:10;;;;;;;7.20;2.10;;;;;;;;;;4992338;28;94153;-69
2022/05/28 13:51:46;;;;;;;11.65;2.10;;;;;;;;;;5011839;28;93267;-70
2022/05/28 13:54:12;;;;;;;10.30;2.40;;;;;;;;;;5014604;28;93896;-69
2022/05/28 13:56:38;;;;;;;9.77;2.50;;;;;;;;;;5013320;28;94044;-69
2022/05/28 13:59:05;;;;;;;11.20;2.20;;;;;;;;;;5017077;28;93777;-69
2022/05/28 14:01:37;;;;;;;13.52;2.65;;;;;;;;;;5013678;28;93892;-70
2022/05/28 14:04:16;;;;;;;11.82;2.83;;;;;;;;;;5000750;28;92405;-70
2022/05/28 14:06:50;;;;;;;15.75;3.20;;;;;;;;;;4994137;28;92382;-69
2022/05/28 14:09:17;;;;;;;8.82;2.10;;;;;;;;;;4994287;28;93903;-69
2022/05/28 14:11:46;;;;;;;10.27;2.38;;;;;;;;;;4991468;28;97342;-69
2022/05/28 14:14:13;;;;;;;19.70;2.92;;;;;;;;;;4993870;28;92500;-69
2022/05/28 14:16:41;;;;;;;11.90;3.05;;;;;;;;;;5013817;28;92820;-69
2022/05/28 14:19:09;;;;;;;12.40;2.35;;;;;;;;;;5002730;28;93376;-69
2022/05/28 14:21:37;;;;;;;8.63;2.20;;;;;;;;;;5016237;28;92531;-69
2022/05/28 14:24:16;;;;;;;7.47;2.50;;;;;;;;;;5013710;28;94253;-70
2022/05/28 14:26:53;;;;;;;8.88;1.90;;;;;;;;;;5012347;28;92504;-69
2022/05/28 14:29:21;;;;;;;7.90;2.50;;;;;;;;;;5014218;28;93991;-69
2022/05/28 14:31:48;;;;;;;11.73;2.30;;;;;;;;;;5010779;28;94048;-69
2022/05/28 14:34:16;;;;;;;5.90;1.92;;;;;;;;;;5013762;28;92529;-69
2022/05/28 14:36:48;;;;;;;5.53;1.90;;;;;;;;;;5011684;28;94829;-69
2022/05/28 14:39:16;;;;;;;11.27;2.33;;;;;;;;;;5011845;28;93691;-69
2022/05/28 14:41:50;;;;;;;7.85;2.53;;;;;;;;;;5013498;28;93019;-69
2022/05/28 14:44:18;;;;;;;4.90;1.60;;;;;;;;;;5016695;28;93964;-69
2022/05/28 14:46:46;;;;;;;11.23;1.95;;;;;;;;;;5012807;28;92554;-69
2022/05/28 14:49:32;;;;;;;2.42;1.40;;;;;;;;;;5013264;28;93991;-69
2022/05/28 14:52:00;;;;;;;4.03;1.58;;;;;;;;;;5013256;28;94169;-69
2022/05/28 14:54:31;;;;;;;8.52;1.95;;;;;;;;;;5013089;28;92259;-69
2022/05/28 14:56:58;;;;;;;6.72;1.90;;;;;;;;;;5011357;28;93269;-70
2022/05/28 14:59:34;;;;;;;8.02;1.90;;;;;;;;;;5002636;28;93482;-69
2022/05/28 15:02:29;;;;;;;3.50;1.50;;;;;;;;;;4995496;28;95249;-68
2022/05/28 15:05:08;;;;;;;2.67;1.15;;;;;;;;;;4990636;28;96252;-69
2022/05/28 15:07:35;;;;;;;7.28;1.70;;;;;;;;;;5003452;28;93883;-69
2022/05/28 15:10:01;;;;;;;7.57;1.95;;;;;;;;;;5007571;28;93883;-69